createdAt,value
2018-11-12T00:00:15.705Z,4.50
2018-11-12T00:02:46.015Z,4.60
2018-11-12T00:05:14.587Z,4.50
2018-11-12T00:07:43.176Z,4.60
2018-11-12T00:10:11.745Z,4.40
2018-11-12T00:15:10.179Z,4.40
2018-11-12T00:17:38.695Z,4.50
2018-11-12T00:20:08.163Z,4.50
2018-11-12T00:22:37.077Z,4.40
2018-11-12T00:25:05.899Z,4.30
2018-11-12T00:27:34.453Z,4.20
2018-11-12T00:30:03.031Z,4.10
2018-11-12T00:32:31.572Z,3.90
2018-11-12T00:35:00.120Z,3.90
2018-11-12T00:37:28.657Z,4.10
2018-11-12T00:39:57.224Z,3.90
2018-11-12T00:42:25.891Z,3.60
2018-11-12T00:44:54.433Z,3.90
2018-11-12T00:47:23.023Z,3.70
2018-11-12T00:49:51.634Z,3.80
2018-11-12T00:54:48.342Z,3.50
2018-11-12T00:57:16.923Z,3.70
2018-11-12T00:59:45.521Z,3.60
2018-11-12T01:02:14.112Z,3.70
2018-11-12T01:04:42.710Z,3.70
2018-11-12T01:07:11.218Z,3.50
2018-11-12T01:09:39.793Z,3.60
2018-11-12T01:12:08.315Z,3.50
2018-11-12T01:14:36.842Z,3.50
2018-11-12T01:17:05.693Z,3.40
2018-11-12T01:19:34.272Z,3.40
2018-11-12T01:22:02.805Z,3.30
2018-11-12T01:24:31.348Z,3.30
2018-11-12T01:26:59.892Z,3.20
2018-11-12T01:29:28.460Z,3.10
2018-11-12T01:31:56.994Z,3.00
2018-11-12T01:34:25.560Z,3.20
2018-11-12T01:36:54.124Z,3.30
2018-11-12T01:39:22.672Z,3.40
2018-11-12T01:41:51.219Z,3.30
2018-11-12T01:44:19.772Z,3.20
2018-11-12T01:46:48.834Z,3.20
2018-11-12T01:49:17.540Z,3.20
2018-11-12T01:51:46.054Z,3.10
2018-11-12T01:54:14.574Z,3.00
2018-11-12T01:56:43.086Z,3.30
2018-11-12T01:59:11.635Z,3.30
2018-11-12T02:01:40.228Z,3.50
2018-11-12T02:04:08.743Z,3.40
2018-11-12T02:06:37.301Z,3.40
2018-11-12T02:09:08.598Z,3.50
2018-11-12T02:11:37.143Z,3.60
2018-11-12T02:14:06.064Z,3.90
2018-11-12T02:16:34.614Z,3.90
2018-11-12T02:19:03.179Z,4.30
2018-11-12T02:21:31.805Z,4.30
2018-11-12T02:24:00.296Z,4.60
2018-11-12T02:26:28.832Z,4.50
2018-11-12T02:28:57.492Z,4.70
2018-11-12T02:31:26.103Z,4.80
2018-11-12T02:33:54.592Z,4.90
2018-11-12T02:36:23.113Z,5.00
2018-11-12T02:38:51.642Z,5.10
2018-11-12T02:41:20.155Z,5.10
2018-11-12T02:43:48.674Z,5.20
2018-11-12T02:46:17.219Z,5.30
2018-11-12T02:48:45.738Z,5.30
2018-11-12T02:51:14.266Z,5.30
2018-11-12T02:53:42.794Z,5.30
2018-11-12T02:56:11.317Z,5.40
2018-11-12T02:58:39.927Z,5.50
2018-11-12T03:01:09.238Z,5.50
2018-11-12T03:03:37.779Z,5.60
2018-11-12T03:06:06.346Z,5.60
2018-11-12T03:08:34.889Z,5.70
2018-11-12T03:11:03.441Z,5.80
2018-11-12T03:13:32.008Z,5.80
2018-11-12T03:16:00.549Z,5.80
2018-11-12T03:18:29.083Z,5.80
2018-11-12T03:20:57.633Z,5.90
2018-11-12T03:23:26.180Z,5.90
2018-11-12T03:25:54.731Z,5.90
2018-11-12T03:28:23.309Z,5.90
2018-11-12T03:30:51.845Z,5.90
2018-11-12T03:33:20.393Z,5.90
2018-11-12T03:35:48.941Z,5.80
2018-11-12T03:38:17.509Z,6.10
2018-11-12T03:40:46.059Z,6.00
2018-11-12T03:43:14.607Z,6.00
2018-11-12T03:45:43.123Z,6.10
2018-11-12T03:48:11.657Z,6.00
2018-11-12T03:50:40.174Z,6.00
2018-11-12T03:53:08.713Z,6.00
2018-11-12T03:55:37.225Z,6.00
2018-11-12T03:58:06.348Z,6.00
2018-11-12T04:00:34.921Z,6.00
2018-11-12T04:03:03.531Z,6.10
2018-11-12T04:05:32.096Z,6.00
2018-11-12T04:10:28.859Z,6.10
2018-11-12T04:12:57.388Z,6.30
2018-11-12T04:15:26.564Z,6.30
2018-11-12T04:17:55.126Z,6.20
2018-11-12T04:20:24.448Z,6.20
2018-11-12T04:23:05.274Z,6.20
2018-11-12T04:25:37.415Z,6.20
2018-11-12T04:28:06.084Z,6.20
2018-11-12T04:30:34.692Z,6.30
2018-11-12T04:33:03.466Z,6.30
2018-11-12T04:35:32.100Z,6.30
2018-11-12T04:38:00.703Z,6.20
2018-11-12T04:40:29.253Z,6.20
2018-11-12T04:42:57.799Z,6.20
2018-11-12T04:45:26.811Z,6.20
2018-11-12T04:47:56.380Z,6.40
2018-11-12T04:50:26.316Z,6.40
2018-11-12T04:52:55.246Z,6.20
2018-11-12T04:55:24.460Z,6.20
2018-11-12T04:57:53.022Z,6.00
2018-11-12T05:00:24.410Z,6.00
2018-11-12T05:02:53.492Z,6.00
2018-11-12T05:05:23.660Z,6.10
2018-11-12T05:07:52.458Z,7.30
2018-11-12T05:10:22.208Z,6.10
2018-11-12T05:12:51.642Z,6.10
2018-11-12T05:15:21.389Z,6.00
2018-11-12T05:17:50.136Z,6.20
2018-11-12T05:20:21.092Z,6.30
2018-11-12T05:22:49.778Z,6.20
2018-11-12T05:25:18.474Z,5.90
2018-11-12T05:27:47.084Z,6.30
2018-11-12T05:30:18.565Z,6.20
2018-11-12T05:32:47.227Z,6.30
2018-11-12T05:35:18.122Z,6.20
2018-11-12T05:37:46.762Z,6.00
2018-11-12T05:42:59.271Z,6.20
2018-11-12T05:45:28.689Z,6.10
2018-11-12T05:47:57.318Z,6.20
2018-11-12T05:50:27.240Z,5.80
2018-11-12T05:53:00.121Z,5.80
2018-11-12T05:55:29.626Z,6.00
2018-11-12T05:57:58.357Z,6.40
2018-11-12T06:00:31.859Z,5.80
2018-11-12T06:03:00.754Z,6.10
2018-11-12T06:05:29.465Z,6.10
2018-11-12T06:10:27.695Z,6.20
2018-11-12T06:12:56.254Z,6.30
2018-11-12T06:15:24.825Z,6.60
2018-11-12T06:17:53.369Z,6.70
2018-11-12T06:20:24.339Z,6.30
2018-11-12T06:25:22.479Z,6.50
2018-11-12T06:27:51.263Z,6.70
2018-11-12T06:30:21.004Z,6.50
2018-11-12T06:32:49.533Z,6.30
2018-11-12T06:37:48.408Z,6.40
2018-11-12T06:40:18.299Z,6.50
2018-11-12T06:42:46.904Z,6.70
2018-11-12T06:45:17.640Z,6.30
2018-11-12T06:47:47.172Z,6.40
2018-11-12T06:50:17.057Z,6.30
2018-11-12T06:52:45.600Z,6.30
2018-11-12T06:55:14.802Z,6.30
2018-11-12T06:57:43.731Z,6.30
2018-11-12T07:00:22.169Z,6.20
2018-11-12T07:02:50.691Z,6.30
2018-11-12T07:05:19.414Z,6.20
2018-11-12T07:07:47.867Z,6.30
2018-11-12T07:10:20.806Z,6.40
2018-11-12T07:12:50.103Z,6.30
2018-11-12T07:15:19.931Z,6.30
2018-11-12T07:17:48.451Z,6.20
2018-11-12T07:20:19.484Z,6.30
2018-11-12T07:22:48.454Z,6.20
2018-11-12T07:25:18.223Z,6.30
2018-11-12T07:27:46.677Z,6.20
2018-11-12T07:30:17.705Z,6.20
2018-11-12T07:32:46.815Z,6.30
2018-11-12T07:35:16.011Z,6.30
2018-11-12T07:37:45.610Z,6.30
2018-11-12T07:40:14.802Z,6.40
2018-11-12T07:42:43.483Z,6.50
2018-11-12T07:45:14.556Z,6.50
2018-11-12T07:47:44.127Z,6.60
2018-11-12T07:50:14.064Z,6.70
2018-11-12T07:52:42.623Z,6.60
2018-11-12T07:55:13.406Z,6.70
2018-11-12T07:57:42.202Z,6.80
2018-11-12T08:00:20.198Z,6.60
2018-11-12T08:02:49.622Z,6.90
2018-11-12T08:05:18.256Z,6.80
2018-11-12T08:07:47.052Z,6.70
2018-11-12T08:10:17.920Z,6.70
2018-11-12T08:12:46.898Z,7.10
2018-11-12T08:15:16.714Z,6.90
2018-11-12T08:17:45.272Z,7.10
2018-11-12T08:20:15.131Z,7.20
2018-11-12T08:22:44.968Z,7.20
2018-11-12T08:25:13.635Z,7.20
2018-11-12T08:27:42.828Z,7.10
2018-11-12T08:30:14.536Z,7.10
2018-11-12T08:32:43.703Z,7.10
2018-11-12T08:35:12.912Z,7.20
2018-11-12T08:37:41.404Z,7.20
2018-11-12T08:40:11.458Z,7.00
2018-11-12T08:42:39.910Z,7.00
2018-11-12T08:45:09.208Z,6.90
2018-11-12T08:47:38.402Z,6.90
2018-11-12T08:50:12.499Z,6.90
2018-11-12T08:52:42.006Z,7.00
2018-11-12T08:55:12.605Z,7.20
2018-11-12T08:57:42.361Z,7.30
2018-11-12T09:00:11.682Z,7.30
2018-11-12T09:02:40.568Z,7.30
2018-11-12T09:05:11.441Z,7.30
2018-11-12T09:07:41.032Z,7.30
2018-11-12T09:10:11.341Z,7.30
2018-11-12T09:12:40.447Z,7.50
2018-11-12T09:15:09.748Z,7.70
2018-11-12T09:17:39.039Z,7.70
2018-11-12T09:20:08.495Z,7.80
2018-11-12T09:22:36.978Z,7.60
2018-11-12T09:25:07.374Z,7.80
2018-11-12T09:27:35.901Z,7.90
2018-11-12T09:30:22.475Z,8.10
2018-11-12T09:32:51.071Z,8.20
2018-11-12T09:35:20.881Z,8.20
2018-11-12T09:37:50.387Z,8.20
2018-11-12T09:40:24.108Z,8.20
2018-11-12T09:42:52.659Z,8.20
2018-11-12T09:45:21.199Z,8.20
2018-11-12T09:47:49.760Z,8.20
2018-11-12T09:50:19.445Z,8.20
2018-11-12T09:52:49.085Z,8.40
2018-11-12T09:55:18.378Z,8.60
2018-11-12T09:57:48.257Z,8.60
2018-11-12T10:00:18.093Z,8.60
2018-11-12T10:02:48.194Z,8.60
2018-11-12T10:05:18.199Z,8.60
2018-11-12T10:07:47.566Z,8.60
2018-11-12T10:10:52.050Z,8.60
2018-11-12T10:13:22.210Z,8.60
2018-11-12T10:15:51.400Z,8.60
2018-11-12T10:18:17.653Z,8.70
2018-11-12T10:20:46.190Z,8.80
2018-11-12T10:23:14.689Z,8.80
2018-11-12T10:25:43.283Z,8.60
2018-11-12T10:28:11.816Z,8.50
2018-11-12T10:30:40.305Z,8.60
2018-11-12T10:33:09.022Z,8.80
2018-11-12T10:35:37.530Z,8.70
2018-11-12T10:38:06.620Z,8.80
2018-11-12T10:40:35.095Z,8.90
2018-11-12T10:43:03.582Z,8.90
2018-11-12T10:45:32.067Z,8.80
2018-11-12T10:48:00.618Z,8.70
2018-11-12T10:50:29.152Z,9.00
2018-11-12T10:52:57.625Z,8.90
2018-11-12T10:55:26.455Z,9.20
2018-11-12T10:57:55.121Z,9.30
2018-11-12T11:00:30.241Z,9.30
2018-11-12T11:03:06.017Z,9.30
2018-11-12T11:05:34.905Z,9.20
2018-11-12T11:08:03.378Z,9.60
2018-11-12T11:10:32.295Z,9.90
2018-11-12T11:13:01.991Z,9.50
2018-11-12T11:15:31.095Z,9.50
2018-11-12T11:17:59.578Z,9.50
2018-11-12T11:20:28.159Z,9.60
2018-11-12T11:22:56.648Z,9.40
2018-11-12T11:25:25.106Z,9.40
2018-11-12T11:27:53.598Z,9.60
2018-11-12T11:30:22.066Z,9.60
2018-11-12T11:32:50.693Z,9.60
2018-11-12T11:35:20.004Z,9.50
2018-11-12T11:37:48.547Z,9.40
2018-11-12T11:40:18.448Z,9.30
2018-11-12T11:42:46.845Z,9.20
2018-11-12T11:45:16.210Z,9.30
2018-11-12T11:47:45.802Z,9.30
2018-11-12T11:50:15.743Z,9.20
2018-11-12T11:52:44.146Z,9.30
2018-11-12T11:55:14.950Z,9.40
2018-11-12T11:57:43.685Z,9.50
2018-11-12T12:00:14.282Z,9.50
2018-11-12T12:02:43.598Z,9.40
2018-11-12T12:05:13.220Z,9.70
2018-11-12T12:07:41.779Z,10.00
2018-11-12T12:10:10.987Z,9.90
2018-11-12T12:12:39.543Z,10.60
2018-11-12T12:15:09.920Z,11.00
2018-11-12T12:17:38.526Z,11.30
2018-11-12T12:20:10.169Z,11.40
2018-11-12T12:22:38.658Z,11.80
2018-11-12T12:25:08.569Z,12.20
2018-11-12T12:27:37.041Z,12.30
2018-11-12T12:30:07.961Z,12.50
2018-11-12T12:32:36.511Z,12.50
2018-11-12T12:35:05.517Z,12.40
2018-11-12T12:37:34.041Z,12.20
2018-11-12T12:40:02.908Z,12.00
2018-11-12T12:42:31.423Z,12.00
2018-11-12T12:45:00.227Z,12.10
2018-11-12T12:47:28.557Z,12.10
2018-11-12T12:49:57.041Z,12.50
2018-11-12T12:52:25.587Z,12.50
2018-11-12T12:54:54.063Z,13.00
2018-11-12T12:57:22.545Z,12.70
2018-11-12T12:59:51.087Z,12.40
2018-11-12T13:02:19.629Z,12.30
2018-11-12T13:04:48.152Z,12.50
2018-11-12T13:07:16.912Z,12.60
2018-11-12T13:09:45.396Z,12.90
2018-11-12T13:12:13.887Z,13.20
2018-11-12T13:14:42.611Z,13.80
2018-11-12T13:17:11.040Z,13.70
2018-11-12T13:19:39.552Z,13.80
2018-11-12T13:22:08.039Z,13.50
2018-11-12T13:24:36.523Z,13.40
2018-11-12T13:27:05.084Z,13.60
2018-11-12T13:29:33.555Z,13.70
2018-11-12T13:32:02.146Z,13.60
2018-11-12T13:34:30.667Z,13.60
2018-11-12T13:36:59.174Z,13.30
2018-11-12T13:39:27.827Z,13.30
2018-11-12T13:41:56.219Z,13.20
2018-11-12T13:44:24.724Z,13.00
2018-11-12T13:46:54.590Z,12.70
2018-11-12T13:49:23.082Z,12.60
2018-11-12T13:51:51.598Z,12.40
2018-11-12T13:54:20.149Z,12.00
2018-11-12T13:56:48.670Z,12.00
2018-11-12T13:59:17.168Z,12.00
2018-11-12T14:01:45.734Z,12.00
2018-11-12T14:04:14.220Z,12.10
2018-11-12T14:06:42.698Z,12.10
2018-11-12T14:09:11.838Z,12.10
2018-11-12T14:11:40.478Z,12.00
2018-11-12T14:14:09.016Z,11.90
2018-11-12T14:16:37.630Z,11.80
2018-11-12T14:19:06.252Z,11.70
2018-11-12T14:21:34.954Z,11.40
2018-11-12T14:24:03.716Z,11.60
2018-11-12T14:26:32.273Z,11.30
2018-11-12T14:29:00.746Z,11.30
2018-11-12T14:31:29.476Z,11.20
2018-11-12T14:33:58.165Z,11.10
2018-11-12T14:36:26.680Z,11.00
2018-11-12T14:38:55.200Z,10.80
2018-11-12T14:41:23.742Z,10.60
2018-11-12T14:43:52.315Z,10.60
2018-11-12T14:46:20.776Z,10.60
2018-11-12T14:48:49.254Z,10.60
2018-11-12T14:51:17.820Z,10.50
2018-11-12T14:53:46.222Z,10.50
2018-11-12T14:56:14.762Z,10.50
2018-11-12T14:58:43.274Z,10.50
2018-11-12T15:01:11.777Z,10.40
2018-11-12T15:03:40.332Z,10.30
2018-11-12T15:06:08.886Z,10.10
2018-11-12T15:08:37.396Z,9.80
2018-11-12T15:11:06.517Z,9.90
2018-11-12T15:13:35.026Z,9.80
2018-11-12T15:16:03.522Z,9.70
2018-11-12T15:18:32.020Z,9.50
2018-11-12T15:21:00.550Z,9.30
2018-11-12T15:23:29.115Z,9.40
2018-11-12T15:25:57.612Z,9.20
2018-11-12T15:28:26.148Z,9.10
2018-11-12T15:30:54.676Z,9.20
2018-11-12T15:33:27.363Z,8.70
2018-11-12T15:35:56.080Z,8.50
2018-11-12T15:38:25.286Z,8.90
2018-11-12T15:40:53.838Z,9.10
2018-11-12T15:43:23.720Z,8.50
2018-11-12T15:45:52.257Z,10.10
2018-11-12T15:48:21.234Z,8.50
2018-11-12T15:50:49.831Z,8.30
2018-11-12T15:53:18.420Z,8.30
2018-11-12T15:55:46.959Z,8.30
2018-11-12T15:58:15.631Z,8.30
2018-11-12T16:00:44.146Z,8.40
2018-11-12T16:03:12.707Z,8.10
2018-11-12T16:05:41.315Z,8.10
2018-11-12T16:08:09.895Z,8.00
2018-11-12T16:10:38.506Z,8.00
2018-11-12T16:13:07.084Z,7.80
2018-11-12T16:15:35.701Z,7.90
2018-11-12T16:18:04.256Z,7.90
2018-11-12T16:20:32.819Z,7.60
2018-11-12T16:23:01.827Z,7.70
2018-11-12T16:25:30.655Z,7.40
2018-11-12T16:27:59.360Z,7.60
2018-11-12T16:30:28.005Z,7.80
2018-11-12T16:32:56.623Z,7.90
2018-11-12T16:35:25.677Z,7.70
2018-11-12T16:37:55.085Z,7.80
2018-11-12T16:40:23.826Z,7.70
2018-11-12T16:42:52.389Z,7.50
2018-11-12T16:45:21.086Z,7.60
2018-11-12T16:47:49.704Z,7.90
2018-11-12T16:50:18.537Z,7.50
2018-11-12T16:52:47.276Z,7.50
2018-11-12T16:55:17.612Z,7.60
2018-11-12T16:57:46.580Z,7.30
2018-11-12T17:00:16.895Z,7.50
2018-11-12T17:02:46.557Z,7.50
2018-11-12T17:05:17.535Z,7.80
2018-11-12T17:07:46.291Z,7.90
2018-11-12T17:10:16.541Z,7.80
2018-11-12T17:12:45.997Z,7.90
2018-11-12T17:15:15.216Z,8.10
2018-11-12T17:17:44.272Z,8.00
2018-11-12T17:20:14.221Z,7.90
2018-11-12T17:22:42.893Z,8.10
2018-11-12T17:27:41.734Z,8.10
2018-11-12T17:30:14.588Z,7.80
2018-11-12T17:32:43.749Z,8.10
2018-11-12T17:35:15.300Z,8.00
2018-11-12T17:37:44.301Z,8.00
2018-11-12T17:40:28.906Z,8.20
2018-11-12T17:47:57.696Z,8.30
2018-11-12T17:50:27.232Z,8.30
2018-11-12T17:52:57.292Z,8.00
2018-11-12T17:55:26.734Z,8.50
2018-11-12T17:57:55.869Z,8.20
2018-11-12T18:00:29.041Z,8.40
2018-11-12T18:02:58.933Z,8.20
2018-11-12T18:05:29.213Z,8.10
2018-11-12T18:10:26.251Z,8.30
2018-11-12T18:12:54.954Z,8.40
2018-11-12T18:15:25.614Z,8.10
2018-11-12T18:17:54.238Z,8.50
2018-11-12T18:20:30.515Z,8.20
2018-11-12T18:22:59.262Z,8.00
2018-11-12T18:25:28.913Z,8.30
2018-11-12T18:28:00.366Z,8.70
2018-11-12T18:30:30.645Z,8.30
2018-11-12T18:33:02.220Z,8.20
2018-11-12T18:35:32.052Z,8.20
2018-11-12T18:38:01.737Z,8.30
2018-11-12T18:40:30.640Z,7.90
2018-11-12T18:45:31.231Z,7.80
2018-11-12T18:48:00.695Z,8.00
2018-11-12T18:50:33.209Z,7.90
2018-11-12T18:55:31.991Z,8.00
2018-11-12T18:58:03.341Z,8.10
2018-11-12T19:00:32.637Z,8.00
2018-11-12T19:03:02.151Z,8.00
2018-11-12T19:05:30.943Z,7.90
2018-11-12T19:08:00.977Z,7.80
2018-11-12T19:10:32.441Z,7.70
2018-11-12T19:15:33.483Z,8.20
2018-11-12T19:18:05.040Z,8.00
2018-11-12T19:20:34.883Z,7.90
2018-11-12T19:23:03.575Z,8.30
2018-11-12T19:25:32.890Z,8.10
2018-11-12T19:28:02.034Z,8.50
2018-11-12T19:30:31.406Z,8.60
2018-11-12T19:33:01.919Z,7.90
2018-11-12T19:35:32.484Z,8.10
2018-11-12T19:38:05.592Z,8.30
2018-11-12T19:40:35.866Z,8.20
2018-11-12T19:43:05.212Z,8.50
2018-11-12T19:45:35.982Z,8.30
2018-11-12T19:48:05.867Z,8.20
2018-11-12T19:50:35.738Z,8.20
2018-11-12T19:53:05.140Z,8.00
2018-11-12T19:55:33.868Z,8.00
2018-11-12T19:58:03.249Z,7.60
2018-11-12T20:00:33.200Z,7.60
2018-11-12T20:05:32.023Z,7.80
2018-11-12T20:08:01.481Z,7.70
2018-11-12T20:10:32.225Z,7.70
2018-11-12T20:13:02.463Z,7.80
2018-11-12T20:15:32.048Z,8.00
2018-11-12T20:18:01.287Z,7.80
2018-11-12T20:20:35.355Z,7.80
2018-11-12T20:23:04.799Z,8.10
2018-11-12T20:25:34.898Z,8.00
2018-11-12T20:28:04.849Z,8.10
2018-11-12T20:30:39.000Z,7.70
2018-11-12T20:35:38.618Z,7.60
2018-11-12T20:40:36.389Z,7.80
2018-11-12T20:43:05.340Z,8.00
2018-11-12T20:45:34.809Z,7.90
2018-11-12T20:48:04.230Z,7.90
2018-11-12T20:53:02.690Z,7.60
2018-11-12T20:55:31.679Z,8.00
2018-11-12T20:58:02.823Z,7.40
2018-11-12T21:00:32.719Z,7.60
2018-11-12T21:05:30.584Z,7.30
2018-11-12T21:08:00.169Z,7.20
2018-11-12T21:10:28.960Z,7.70
2018-11-12T21:12:57.695Z,7.30
2018-11-12T21:15:26.634Z,7.50
2018-11-12T21:17:55.554Z,7.10
2018-11-12T21:20:26.399Z,7.50
2018-11-12T21:22:55.364Z,7.50
2018-11-12T21:25:25.939Z,7.50
2018-11-12T21:27:55.317Z,7.50
2018-11-12T21:30:26.110Z,7.40
2018-11-12T21:32:55.748Z,7.40
2018-11-12T21:35:24.625Z,7.20
2018-11-12T21:40:23.781Z,7.50
2018-11-12T21:42:52.527Z,7.10
2018-11-12T21:45:23.587Z,7.40
2018-11-12T21:47:52.442Z,7.30
2018-11-12T21:50:21.791Z,7.70
2018-11-12T21:52:52.377Z,7.50
2018-11-12T21:55:21.979Z,7.50
2018-11-12T21:57:50.625Z,7.40
2018-11-12T22:05:23.835Z,7.10
2018-11-12T22:07:52.513Z,7.30
2018-11-12T22:10:22.329Z,7.50
2018-11-12T22:12:51.797Z,7.50
2018-11-12T22:17:49.334Z,7.80
2018-11-12T22:20:19.276Z,7.80
2018-11-12T22:22:47.869Z,7.60
2018-11-12T22:25:17.913Z,7.60
2018-11-12T22:32:46.901Z,7.60
2018-11-12T22:40:13.512Z,7.60
2018-11-12T22:42:42.781Z,7.70
2018-11-12T22:45:13.335Z,7.50
2018-11-12T22:47:42.076Z,7.70
2018-11-12T22:50:11.283Z,7.50
2018-11-12T22:52:40.401Z,7.60
2018-11-12T22:55:09.786Z,7.60
2018-11-12T22:57:38.327Z,7.60
2018-11-12T23:02:49.507Z,7.40
2018-11-12T23:05:18.496Z,7.40
2018-11-12T23:07:47.676Z,7.40
2018-11-12T23:10:16.795Z,7.60
2018-11-12T23:12:45.380Z,7.20
2018-11-12T23:17:42.436Z,7.20
2018-11-12T23:20:15.129Z,7.30
2018-11-12T23:22:44.543Z,7.20
2018-11-12T23:25:13.106Z,7.20
2018-11-12T23:27:42.648Z,7.10
2018-11-12T23:32:40.351Z,7.30
2018-11-12T23:35:12.807Z,7.20
2018-11-12T23:37:42.110Z,7.30
2018-11-12T23:40:11.430Z,7.30
2018-11-12T23:42:40.192Z,7.00
2018-11-12T23:45:08.932Z,7.30
2018-11-12T23:47:37.982Z,7.30
2018-11-12T23:50:09.112Z,8.00
2018-11-12T23:52:37.658Z,7.40
2018-11-12T23:55:06.367Z,7.30
2018-11-12T23:57:34.993Z,7.00
